Time;durP1;ratioP1;P1;durP2;ratioP2;P2;SDS_P1;SDS_P2;PMS_P1;PMS_P2;Temp;Humidity;BMP_temperature;BMP_pressure;BME280_temperature;BME280_humidity;BME280_pressure;Samples;Min_cycle;Max_cycle;Signal;HPM_P1;HPM_P2
2022/12/01 00:00:56;;;;;;;0.13;0.13;;;;;;;5.19;73.54;102897.84;5071155;28;20028;-80
2022/12/01 00:03:22;;;;;;;0.20;0.20;;;;;;;5.18;73.75;102896.06;5070750;28;20086;-81
2022/12/01 00:06:05;;;;;;;0.47;0.47;;;;;;;5.24;74.04;102896.28;5071146;28;20029;-81
2022/12/01 00:08:32;;;;;;;0.20;0.20;;;;;;;5.28;74.16;102887.69;5066843;28;20033;-81
2022/12/01 00:11:08;;;;;;;0.60;0.60;;;;;;;5.34;74.31;102897.50;5069282;28;20029;-81
2022/12/01 00:13:35;;;;;;;0.22;0.22;;;;;;;5.31;73.59;102892.16;5073573;28;20013;-80
2022/12/01 00:16:10;;;;;;;0.20;0.20;;;;;;;5.30;73.99;102891.22;5067082;28;20114;-80
2022/12/01 00:18:37;;;;;;;0.20;0.20;;;;;;;5.25;73.79;102897.19;5056062;28;20017;-81
2022/12/01 00:21:03;;;;;;;0.50;0.50;;;;;;;5.25;73.97;102902.44;5055014;28;20032;-81
2022/12/01 00:23:29;;;;;;;0.20;0.20;;;;;;;5.23;73.91;102901.50;5059746;28;20076;-81
2022/12/01 00:26:03;;;;;;;0.20;0.20;;;;;;;5.24;73.73;102904.16;5055842;28;20032;-81
2022/12/01 00:28:29;;;;;;;0.20;0.20;;;;;;;5.22;73.72;102904.94;5056566;28;20029;-81
2022/12/01 00:30:55;;;;;;;0.30;0.30;;;;;;;5.25;73.99;102910.34;5058422;28;20033;-80
2022/12/01 00:33:21;;;;;;;0.10;0.10;;;;;;;5.29;74.39;102914.84;5054334;28;20044;-81
2022/12/01 00:35:47;;;;;;;0.40;0.40;;;;;;;5.32;74.48;102907.06;5056079;28;20441;-81
2022/12/01 00:38:13;;;;;;;1.75;1.52;;;;;;;5.35;74.31;102904.53;5058142;28;20047;-81
2022/12/01 00:40:39;;;;;;;0.20;0.20;;;;;;;5.38;74.44;102899.38;5057934;28;20450;-81
2022/12/01 00:43:05;;;;;;;0.60;0.60;;;;;;;5.43;74.55;102900.47;5057867;28;20031;-81
2022/12/01 00:45:31;;;;;;;0.22;0.22;;;;;;;5.44;74.57;102899.59;5057708;28;20112;-81
2022/12/01 00:47:58;;;;;;;0.30;0.30;;;;;;;5.45;74.83;102906.66;5056267;28;20046;-81
2022/12/01 00:50:24;;;;;;;1.65;1.17;;;;;;;5.47;75.00;102904.97;5053358;28;20052;-81
2022/12/01 00:52:50;;;;;;;0.85;0.85;;;;;;;5.56;74.73;102899.13;5054948;28;20021;-80
2022/12/01 00:55:16;;;;;;;0.22;0.22;;;;;;;5.64;74.94;102899.38;5057349;28;20163;-81
2022/12/01 00:57:42;;;;;;;0.55;0.55;;;;;;;5.71;74.76;102893.50;5057237;28;20029;-81
2022/12/01 01:00:09;;;;;;;0.63;0.63;;;;;;;5.79;75.09;102902.50;5056290;28;20048;-81
2022/12/01 01:02:38;;;;;;;0.63;0.63;;;;;;;5.88;75.21;102901.94;5057814;28;20037;-80
2022/12/01 01:05:05;;;;;;;0.30;0.30;;;;;;;5.96;75.39;102896.94;5055546;28;20024;-81
2022/12/01 01:07:31;;;;;;;0.10;0.10;;;;;;;6.03;75.53;102912.13;5057056;28;20070;-81
2022/12/01 01:09:57;;;;;;;0.20;0.20;;;;;;;6.11;75.90;102907.97;5056079;28;20060;-81
2022/12/01 01:12:23;;;;;;;0.82;0.82;;;;;;;6.18;76.01;102910.78;5056227;28;20075;-81
2022/12/01 01:14:50;;;;;;;0.70;0.70;;;;;;;6.24;76.05;102913.63;5056263;28;20017;-80
2022/12/01 01:17:19;;;;;;;0.20;0.20;;;;;;;6.33;76.21;102911.28;5056295;28;20028;-80
2022/12/01 01:19:45;;;;;;;0.95;0.95;;;;;;;6.37;76.28;102909.63;5055192;28;20025;-81
2022/12/01 01:22:11;;;;;;;0.25;0.25;;;;;;;6.43;76.31;102913.34;5054051;28;20103;-81
2022/12/01 01:24:37;;;;;;;2.92;2.15;;;;;;;6.48;76.05;102909.13;5054318;28;20044;-81
2022/12/01 01:27:05;;;;;;;0.45;0.45;;;;;;;6.53;76.15;102911.91;5058647;28;20043;-80
2022/12/01 01:29:31;;;;;;;1.55;1.10;;;;;;;6.57;76.11;102911.13;5052860;28;20048;-81
2022/12/01 01:31:57;;;;;;;1.55;1.45;;;;;;;6.64;76.42;102926.28;5050419;28;20104;-81
2022/12/01 01:34:24;;;;;;;0.50;0.50;;;;;;;6.67;76.55;102929.81;5052217;28;20571;-80
2022/12/01 01:36:50;;;;;;;0.45;0.45;;;;;;;6.73;76.33;102928.28;5053972;28;20043;-81
2022/12/01 01:39:16;;;;;;;0.50;0.50;;;;;;;6.77;76.47;102916.97;5055420;28;20029;-81
2022/12/01 01:41:42;;;;;;;0.50;0.50;;;;;;;6.79;76.54;102928.47;5059436;28;20422;-82
2022/12/01 01:44:48;;;;;;;1.80;1.70;;;;;;;6.85;76.51;102926.84;5058759;28;20040;-80
2022/12/01 01:47:19;;;;;;;0.68;0.68;;;;;;;6.87;76.66;102919.91;5057474;28;20074;-81
2022/12/01 01:49:46;;;;;;;5.38;0.90;;;;;;;6.90;76.25;102915.63;5054410;28;20040;-81
2022/12/01 01:52:13;;;;;;;1.83;1.70;;;;;;;6.91;76.21;102929.66;5057660;28;20021;-81
2022/12/01 01:54:43;;;;;;;0.57;0.57;;;;;;;6.93;76.58;102922.72;5056902;28;20029;-81
2022/12/01 01:57:13;;;;;;;6.63;5.88;;;;;;;6.95;76.38;102924.53;5055511;28;20025;-81
2022/12/01 01:59:44;;;;;;;1.48;1.10;;;;;;;6.90;76.86;102928.78;5055447;28;20032;-81
2022/12/01 02:02:11;;;;;;;1.17;1.17;;;;;;;6.96;76.89;102925.41;5060448;28;20035;-81
2022/12/01 02:04:40;;;;;;;0.10;0.10;;;;;;;6.98;76.85;102926.38;5057321;28;20025;-81
2022/12/01 02:07:07;;;;;;;0.15;0.15;;;;;;;7.04;77.16;102926.53;5055290;28;20108;-81
2022/12/01 02:09:35;;;;;;;0.98;0.98;;;;;;;7.07;76.42;102916.06;5053997;28;20428;-81
2022/12/01 02:12:28;;;;;;;0.98;0.98;;;;;;;7.14;76.70;102919.78;5058074;28;20029;-81
2022/12/01 02:15:17;;;;;;;2.88;2.67;;;;;;;7.13;76.60;102924.16;5057439;28;20100;-81
2022/12/01 02:18:07;;;;;;;2.15;1.00;;;;;;;7.16;76.92;102922.47;5057311;28;20024;-81
2022/12/01 02:23:44;;;;;;;0.28;0.28;;;;;;;7.24;76.76;102920.91;5054416;28;20783;-81
2022/12/01 02:31:53;;;;;;;0.63;0.63;;;;;;;7.28;76.68;102912.25;5073177;28;20394;-81
2022/12/01 02:37:05;;;;;;;0.73;0.73;;;;;;;7.30;76.43;102907.88;5111907;27;20397;-80
2022/12/01 02:39:36;;;;;;;1.52;1.52;;;;;;;7.30;76.67;102915.81;5115956;28;20038;-80
2022/12/01 02:42:48;;;;;;;0.57;0.57;;;;;;;7.32;76.27;102919.38;5121586;27;20028;-80
2022/12/01 02:45:09;;;;;;;1.15;1.13;;;;;;;7.29;76.68;102914.03;5124736;27;20411;-81
2022/12/01 02:47:38;;;;;;;0.40;0.40;;;;;;;7.31;76.39;102914.06;5122912;27;20023;-80
2022/12/01 02:50:06;;;;;;;3.15;2.20;;;;;;;7.28;76.65;102912.25;5125243;27;20058;-81
2022/12/01 02:52:33;;;;;;;0.10;0.10;;;;;;;7.25;76.30;102906.88;5124685;27;20116;-80
2022/12/01 02:54:59;;;;;;;0.30;0.30;;;;;;;7.18;76.60;102904.91;5121639;27;20593;-81
2022/12/01 02:57:28;;;;;;;0.20;0.20;;;;;;;7.09;76.32;102905.56;5124041;28;20038;-80
2022/12/01 02:59:56;;;;;;;0.40;0.40;;;;;;;7.02;75.86;102912.41;5129132;28;20529;-80
2022/12/01 03:05:38;;;;;;;1.10;1.10;;;;;;;6.98;75.85;102915.81;5080247;28;20400;-80
2022/12/01 03:08:32;;;;;;;0.90;0.90;;;;;;;6.93;75.71;102914.81;5064072;28;20415;-81
2022/12/01 03:11:00;;;;;;;0.73;0.73;;;;;;;6.86;76.00;102907.56;5067611;28;20067;-81
2022/12/01 03:13:56;;;;;;;0.28;0.28;;;;;;;6.83;75.67;102910.09;5066470;28;20035;-81
2022/12/01 03:16:47;;;;;;;1.50;1.17;;;;;;;6.78;75.71;102905.59;5050965;28;20033;-81
2022/12/01 03:22:02;;;;;;;4.25;4.05;;;;;;;6.66;75.29;102904.38;5084132;28;20385;-80
2022/12/01 03:24:31;;;;;;;1.52;1.45;;;;;;;6.57;75.10;102908.50;5071194;28;20036;-81
2022/12/01 03:27:01;;;;;;;0.20;0.20;;;;;;;6.51;75.19;102904.81;5077519;28;20025;-81
2022/12/01 03:29:35;;;;;;;0.20;0.20;;;;;;;6.44;74.83;102899.34;5074291;28;20124;-80
2022/12/01 03:32:09;;;;;;;0.88;0.88;;;;;;;6.36;74.95;102900.84;5082205;28;20068;-81
2022/12/01 03:34:57;;;;;;;0.10;0.10;;;;;;;6.35;74.65;102895.53;5076590;28;20024;-80
2022/12/01 03:37:32;;;;;;;0.20;0.20;;;;;;;6.26;74.79;102898.78;5071088;28;20024;-81
2022/12/01 03:40:01;;;;;;;0.50;0.50;;;;;;;6.20;74.83;102909.13;5073437;28;20092;-81
2022/12/01 03:42:35;;;;;;;0.30;0.30;;;;;;;6.17;74.63;102909.00;5084010;28;20112;-80
2022/12/01 03:45:06;;;;;;;1.27;0.85;;;;;;;6.13;74.58;102913.28;5071405;28;20025;-81
2022/12/01 03:47:36;;;;;;;0.30;0.30;;;;;;;6.08;74.25;102910.50;5078202;28;20115;-80
2022/12/01 03:50:04;;;;;;;0.20;0.20;;;;;;;6.02;74.57;102907.69;5065996;28;20067;-81
2022/12/01 03:52:47;;;;;;;0.20;0.20;;;;;;;5.99;74.61;102907.56;5070358;28;20025;-81
2022/12/01 03:58:00;;;;;;;0.20;0.20;;;;;;;5.87;74.38;102908.06;5087041;28;20363;-80
2022/12/01 04:00:27;;;;;;;0.20;0.20;;;;;;;5.79;73.87;102913.03;5081888;28;20032;-81
2022/12/01 04:02:55;;;;;;;0.20;0.20;;;;;;;5.76;74.34;102918.22;5084205;28;20115;-81
2022/12/01 04:05:22;;;;;;;1.13;1.13;;;;;;;5.73;74.41;102912.88;5092276;28;20054;-80
2022/12/01 04:07:48;;;;;;;1.38;1.38;;;;;;;5.73;74.62;102907.59;5092229;28;20063;-80
2022/12/01 04:10:16;;;;;;;0.20;0.20;;;;;;;5.75;74.94;102905.00;5087329;28;20024;-80
2022/12/01 04:12:42;;;;;;;0.95;0.95;;;;;;;5.77;74.81;102901.59;5079288;28;20154;-80
2022/12/01 04:15:11;;;;;;;0.10;0.10;;;;;;;5.78;74.74;102913.91;5084023;28;20059;-80
2022/12/01 04:17:38;;;;;;;1.98;1.88;;;;;;;5.78;74.90;102911.28;5095326;28;20020;-81
2022/12/01 04:20:06;;;;;;;10.40;1.95;;;;;;;5.83;74.92;102914.94;5099153;28;20035;-80
2022/12/01 04:22:33;;;;;;;0.20;0.20;;;;;;;5.86;75.35;102923.75;5098843;28;20036;-80
2022/12/01 04:24:59;;;;;;;1.25;1.25;;;;;;;5.93;75.38;102921.41;5092974;28;20024;-80
2022/12/01 04:27:25;;;;;;;0.20;0.20;;;;;;;5.99;75.79;102918.09;5074525;28;20017;-80
2022/12/01 04:29:51;;;;;;;0.20;0.20;;;;;;;6.08;75.47;102912.25;5077979;28;20033;-80
2022/12/01 04:32:18;;;;;;;0.35;0.35;;;;;;;6.15;75.46;102917.75;5078044;28;20036;-81
2022/12/01 04:34:44;;;;;;;2.05;1.95;;;;;;;6.20;75.61;102910.00;5092513;28;20082;-81
2022/12/01 04:37:11;;;;;;;2.05;1.95;;;;;;;6.28;75.56;102920.75;5089448;28;20111;-80
2022/12/01 04:39:37;;;;;;;0.30;0.30;;;;;;;6.31;75.62;102919.13;5072157;28;20028;-80
2022/12/01 04:42:04;;;;;;;1.00;1.00;;;;;;;6.37;75.83;102923.69;5082026;28;20182;-80
2022/12/01 04:44:30;;;;;;;1.13;1.13;;;;;;;6.40;75.75;102918.50;5071025;28;20190;-81
2022/12/01 04:46:56;;;;;;;0.30;0.30;;;;;;;6.43;75.88;102910.72;5077333;28;20036;-81
2022/12/01 04:49:22;;;;;;;0.10;0.10;;;;;;;6.46;75.96;102913.44;5080555;28;20048;-80
2022/12/01 04:51:48;;;;;;;0.20;0.20;;;;;;;6.50;75.92;102913.53;5091893;28;20225;-81
2022/12/01 04:54:15;;;;;;;0.10;0.10;;;;;;;6.53;76.03;102908.34;5091461;28;20552;-80
2022/12/01 04:56:42;;;;;;;1.17;1.17;;;;;;;6.52;75.86;102914.47;5093813;28;20044;-80
2022/12/01 04:59:08;;;;;;;0.20;0.20;;;;;;;6.52;75.98;102917.09;5086611;28;20024;-81
2022/12/01 05:01:35;;;;;;;0.40;0.40;;;;;;;6.54;76.10;102916.31;5077183;28;20453;-80
2022/12/01 05:04:01;;;;;;;1.10;1.10;;;;;;;6.56;75.93;102919.00;5083542;28;20036;-81
2022/12/01 05:06:28;;;;;;;6.30;3.10;;;;;;;6.59;76.05;102913.81;5083214;28;20107;-81
2022/12/01 05:08:57;;;;;;;0.10;0.10;;;;;;;6.60;75.65;102921.78;5079731;28;20032;-81
2022/12/01 05:11:23;;;;;;;0.10;0.10;;;;;;;6.61;75.81;102922.66;5077946;28;20518;-81
2022/12/01 05:13:50;;;;;;;1.17;1.08;;;;;;;6.61;75.81;102923.53;5077963;28;20396;-81
2022/12/01 05:16:19;;;;;;;0.68;0.68;;;;;;;6.60;75.88;102923.50;5063220;28;20064;-80
2022/12/01 05:18:48;;;;;;;1.00;1.00;;;;;;;6.57;76.00;102931.31;5063150;28;20506;-80
2022/12/01 05:21:14;;;;;;;0.15;0.15;;;;;;;6.53;75.71;102924.16;5057870;28;20035;-80
2022/12/01 05:23:40;;;;;;;0.40;0.40;;;;;;;6.48;75.51;102927.56;5070990;28;20031;-80
2022/12/01 05:26:08;;;;;;;0.20;0.20;;;;;;;6.44;75.47;102923.03;5066485;28;20083;-81
2022/12/01 05:28:34;;;;;;;0.20;0.20;;;;;;;6.38;75.37;102914.03;5073229;28;20071;-80
2022/12/01 05:31:00;;;;;;;0.43;0.43;;;;;;;6.32;75.08;102920.03;5077046;28;20092;-80
2022/12/01 05:33:27;;;;;;;0.20;0.20;;;;;;;6.26;74.95;102930.38;5060116;28;20029;-81
2022/12/01 05:35:53;;;;;;;0.20;0.20;;;;;;;6.21;74.87;102926.69;5054919;28;20399;-81
2022/12/01 05:38:20;;;;;;;0.20;0.20;;;;;;;6.16;74.83;102939.72;5059438;28;20037;-81
2022/12/01 05:40:52;;;;;;;1.48;1.38;;;;;;;6.13;74.74;102929.97;5065232;28;20031;-81
2022/12/01 05:43:20;;;;;;;0.77;0.77;;;;;;;6.06;74.55;102933.25;5073267;28;20024;-80
2022/12/01 05:45:46;;;;;;;1.30;1.27;;;;;;;6.02;74.54;102926.09;5071105;28;20029;-80
2022/12/01 05:48:12;;;;;;;0.40;0.40;;;;;;;5.98;74.47;102929.44;5066049;28;20029;-81
2022/12/01 05:50:38;;;;;;;0.20;0.20;;;;;;;5.95;74.45;102924.09;5056790;28;20036;-81
2022/12/01 05:53:05;;;;;;;0.28;0.28;;;;;;;5.88;74.40;102937.88;5060452;28;20032;-80
2022/12/01 05:55:33;;;;;;;0.30;0.30;;;;;;;5.83;74.31;102932.44;5074100;28;20399;-80
2022/12/01 05:57:59;;;;;;;2.58;2.47;;;;;;;5.79;74.21;102944.59;5073737;28;20025;-80
2022/12/01 06:00:25;;;;;;;0.20;0.20;;;;;;;5.75;73.98;102940.09;5069119;28;20567;-80
2022/12/01 06:02:52;;;;;;;0.17;0.17;;;;;;;5.71;74.13;102934.66;5075657;28;20037;-81
2022/12/01 06:05:18;;;;;;;0.32;0.32;;;;;;;5.69;74.13;102945.16;5069104;28;20054;-80
2022/12/01 06:07:44;;;;;;;0.20;0.20;;;;;;;5.70;74.27;102943.44;5068361;28;20060;-80
2022/12/01 06:10:11;;;;;;;0.30;0.30;;;;;;;5.73;74.48;102949.69;5075140;28;20029;-80
2022/12/01 06:12:38;;;;;;;0.22;0.22;;;;;;;5.81;74.64;102955.19;5070941;28;20037;-80
2022/12/01 06:15:05;;;;;;;0.20;0.20;;;;;;;5.85;74.75;102950.94;5058595;28;20487;-80
2022/12/01 06:17:32;;;;;;;0.20;0.20;;;;;;;5.88;74.84;102954.56;5056954;28;20036;-81
2022/12/01 06:19:58;;;;;;;0.35;0.35;;;;;;;5.89;74.71;102960.72;5052868;28;20029;-81
2022/12/01 06:22:24;;;;;;;0.30;0.30;;;;;;;5.86;74.72;102950.97;5063211;28;20039;-81
2022/12/01 06:24:50;;;;;;;2.05;1.95;;;;;;;5.86;74.75;102955.34;5060949;28;20033;-81
2022/12/01 06:27:17;;;;;;;0.20;0.20;;;;;;;5.81;74.78;102953.44;5058102;28;20436;-81
2022/12/01 06:29:43;;;;;;;0.30;0.30;;;;;;;5.76;74.70;102944.50;5053241;28;20065;-81
2022/12/01 06:32:09;;;;;;;0.20;0.20;;;;;;;5.69;74.49;102947.78;5059949;28;20539;-81
2022/12/01 06:34:35;;;;;;;0.30;0.30;;;;;;;5.64;74.58;102941.47;5063144;28;20025;-81
2022/12/01 06:37:02;;;;;;;1.35;1.35;;;;;;;5.60;74.44;102950.09;5049002;28;20041;-82
2022/12/01 06:39:28;;;;;;;0.20;0.20;;;;;;;5.55;74.49;102944.66;5047576;28;20017;-81
2022/12/01 06:41:54;;;;;;;0.20;0.20;;;;;;;5.50;74.37;102943.63;5055496;28;20055;-81
2022/12/01 06:44:20;;;;;;;0.85;0.85;;;;;;;5.48;74.17;102947.94;5057948;28;20380;-81
2022/12/01 06:46:46;;;;;;;0.28;0.28;;;;;;;5.44;73.86;102952.19;5055424;28;20105;-81
2022/12/01 06:49:12;;;;;;;1.35;1.27;;;;;;;5.39;74.07;102953.75;5055616;28;20036;-82
2022/12/01 06:51:39;;;;;;;0.20;0.20;;;;;;;5.36;74.44;102951.03;5051476;28;20416;-80
2022/12/01 06:54:05;;;;;;;0.65;0.65;;;;;;;5.36;74.18;102953.66;5048313;28;20088;-81
2022/12/01 06:56:31;;;;;;;0.43;0.43;;;;;;;5.35;74.25;102958.00;5051884;28;20040;-80
2022/12/01 06:58:57;;;;;;;0.57;0.57;;;;;;;5.34;74.38;102955.31;5059570;28;20040;-80
2022/12/01 07:01:23;;;;;;;0.10;0.10;;;;;;;5.35;74.45;102965.88;5055531;28;20031;-81
2022/12/01 07:03:50;;;;;;;0.50;0.50;;;;;;;5.37;74.44;102962.44;5057685;28;20035;-81
2022/12/01 07:06:16;;;;;;;0.20;0.20;;;;;;;5.40;74.14;102971.31;5045290;28;20032;-81
2022/12/01 07:08:43;;;;;;;0.20;0.20;;;;;;;5.45;74.59;102972.38;5053785;28;20060;-81
2022/12/01 07:11:12;;;;;;;0.20;0.20;;;;;;;5.47;74.79;102965.44;5046891;28;20033;-81
2022/12/01 07:13:39;;;;;;;0.20;0.20;;;;;;;5.54;74.60;102970.94;5052471;28;20507;-81
2022/12/01 07:16:06;;;;;;;0.20;0.20;;;;;;;5.58;74.50;102971.09;5062024;28;20398;-82
2022/12/01 07:18:33;;;;;;;0.30;0.30;;;;;;;5.62;75.46;102974.69;5053943;28;20037;-80
2022/12/01 07:21:02;;;;;;;1.17;1.17;;;;;;;5.70;74.87;102975.00;5064379;28;20104;-81
2022/12/01 07:23:28;;;;;;;0.40;0.40;;;;;;;5.74;74.99;102974.25;5053026;28;20489;-81
2022/12/01 07:26:04;;;;;;;0.15;0.15;;;;;;;5.82;75.39;102986.81;5050798;28;20026;-81
2022/12/01 07:28:31;;;;;;;3.42;2.35;;;;;;;5.85;75.29;102985.16;5043855;28;20029;-80
2022/12/01 07:31:01;;;;;;;0.38;0.38;;;;;;;5.92;75.21;102987.09;5050055;28;20037;-80
2022/12/01 07:33:27;;;;;;;0.70;0.70;;;;;;;5.94;75.51;102999.50;5047239;28;20037;-81
2022/12/01 07:35:53;;;;;;;1.23;1.23;;;;;;;5.97;75.40;102990.81;5052983;28;20025;-81
2022/12/01 07:38:19;;;;;;;1.00;1.00;;;;;;;6.01;75.43;102992.75;5043565;28;20128;-82
2022/12/01 07:40:45;;;;;;;0.50;0.50;;;;;;;6.02;75.39;102994.53;5036578;28;20037;-81
2022/12/01 07:43:12;;;;;;;1.35;0.60;;;;;;;6.03;75.46;102991.06;5039206;28;20536;-81
2022/12/01 07:45:38;;;;;;;0.20;0.20;;;;;;;6.05;75.46;102993.75;5036857;28;20097;-81
2022/12/01 07:48:04;;;;;;;0.30;0.30;;;;;;;6.07;75.45;102995.56;5035817;28;20021;-81
2022/12/01 07:50:30;;;;;;;0.57;0.57;;;;;;;6.08;75.63;102997.38;5038368;28;20152;-81
2022/12/01 07:52:56;;;;;;;0.93;0.93;;;;;;;6.11;75.72;102999.22;5040058;28;20033;-81
2022/12/01 07:55:22;;;;;;;0.20;0.20;;;;;;;6.12;75.53;103007.16;5036417;28;20036;-81
2022/12/01 07:57:48;;;;;;;1.83;1.75;;;;;;;6.14;75.57;103013.38;5039959;28;20034;-81
2022/12/01 08:00:14;;;;;;;0.20;0.20;;;;;;;6.13;75.64;103011.56;5038260;28;20140;-81
2022/12/01 08:02:40;;;;;;;0.52;0.52;;;;;;;6.13;75.48;103014.19;5036013;28;20029;-81
2022/12/01 08:05:07;;;;;;;0.93;0.88;;;;;;;6.13;75.48;103014.19;5035160;28;20030;-81
2022/12/01 08:07:33;;;;;;;2.50;2.40;;;;;;;6.12;75.74;103017.66;5037906;28;20052;-81
2022/12/01 08:09:59;;;;;;;0.30;0.30;;;;;;;6.15;75.59;103017.75;5037542;28;20172;-81
2022/12/01 08:12:25;;;;;;;0.50;0.50;;;;;;;6.19;75.60;103025.78;5055973;28;20063;-82
2022/12/01 08:14:51;;;;;;;0.40;0.40;;;;;;;6.21;75.75;103026.72;5061153;28;20028;-81
2022/12/01 08:17:17;;;;;;;1.77;1.20;;;;;;;6.22;75.63;103029.41;5052315;28;20037;-81
2022/12/01 08:19:43;;;;;;;0.90;0.90;;;;;;;6.26;75.68;103030.41;5038920;28;20512;-81
2022/12/01 08:22:09;;;;;;;0.40;0.40;;;;;;;6.28;75.76;103024.34;5051494;28;20388;-81
2022/12/01 08:24:35;;;;;;;0.20;0.20;;;;;;;6.32;75.85;103030.59;5056291;28;20048;-81
2022/12/01 08:27:01;;;;;;;0.20;0.20;;;;;;;6.31;75.93;103023.56;5049410;28;20055;-81
2022/12/01 08:29:27;;;;;;;0.60;0.60;;;;;;;6.35;75.76;103030.69;5053171;28;20523;-81
2022/12/01 08:31:56;;;;;;;1.85;1.65;;;;;;;6.36;76.19;103034.25;5055257;28;20048;-82
2022/12/01 08:34:22;;;;;;;0.65;0.63;;;;;;;6.35;76.11;103032.44;5053533;28;20041;-81
2022/12/01 08:36:48;;;;;;;4.38;1.20;;;;;;;6.36;75.79;103029.84;5048560;28;20052;-81
2022/12/01 08:39:14;;;;;;;0.20;0.20;;;;;;;6.36;75.79;103037.75;5054212;28;20025;-81
2022/12/01 08:41:41;;;;;;;0.45;0.45;;;;;;;6.36;75.62;103032.50;5055353;28;20045;-81
2022/12/01 08:44:08;;;;;;;2.35;1.90;;;;;;;6.38;75.63;103030.81;5057798;28;20021;-81
2022/12/01 08:46:35;;;;;;;0.30;0.30;;;;;;;6.42;75.75;103032.69;5061099;28;20029;-81
2022/12/01 08:49:03;;;;;;;0.25;0.25;;;;;;;6.44;75.83;103030.09;5057731;28;20096;-81
2022/12/01 08:51:29;;;;;;;0.20;0.20;;;;;;;6.44;76.00;103031.00;5056078;28;20029;-81
2022/12/01 08:53:57;;;;;;;0.90;0.90;;;;;;;6.45;76.29;103030.16;5066445;28;20039;-81
2022/12/01 08:56:28;;;;;;;0.45;0.45;;;;;;;6.50;76.05;103037.31;5076166;28;20091;-81
2022/12/01 08:58:55;;;;;;;2.58;1.15;;;;;;;6.57;76.12;103041.94;5057516;28;20410;-81
2022/12/01 09:01:22;;;;;;;1.55;0.65;;;;;;;6.62;75.90;103037.72;5057810;28;20031;-81
2022/12/01 09:04:03;;;;;;;3.40;3.20;;;;;;;6.68;76.36;103035.28;5057843;28;20036;-81
2022/12/01 09:06:30;;;;;;;1.52;1.50;;;;;;;6.72;76.13;103026.63;5057090;28;20586;-81
2022/12/01 09:08:59;;;;;;;0.38;0.38;;;;;;;6.79;76.25;103023.31;5045114;28;20178;-82
2022/12/01 09:11:25;;;;;;;3.00;1.27;;;;;;;6.83;76.29;103020.78;5040975;28;20021;-81
2022/12/01 09:13:51;;;;;;;1.95;1.88;;;;;;;6.86;76.29;103020.88;5037772;28;20116;-82
2022/12/01 09:16:17;;;;;;;0.20;0.20;;;;;;;6.89;75.79;103018.31;5040205;28;20043;-83
2022/12/01 09:18:45;;;;;;;2.38;2.17;;;;;;;6.93;75.88;103017.59;5048197;28;20060;-83
2022/12/01 09:21:15;;;;;;;0.63;0.57;;;;;;;6.96;75.86;103021.19;5049317;28;20060;-83
2022/12/01 09:23:42;;;;;;;0.15;0.15;;;;;;;7.02;76.29;103028.41;5054334;28;20029;-82
2022/12/01 09:26:08;;;;;;;0.13;0.13;;;;;;;7.10;75.99;103025.97;5047207;28;20123;-82
2022/12/01 09:28:35;;;;;;;0.50;0.50;;;;;;;7.20;76.04;103020.16;5038621;28;20443;-82
2022/12/01 09:31:05;;;;;;;0.95;0.95;;;;;;;7.35;75.90;103029.34;5038866;28;20038;-82
2022/12/01 09:33:31;;;;;;;0.20;0.20;;;;;;;7.46;76.55;103030.53;5039935;28;20507;-82
2022/12/01 09:35:58;;;;;;;0.60;0.60;;;;;;;7.56;76.68;103035.22;5039911;28;20072;-82
2022/12/01 09:38:24;;;;;;;0.73;0.73;;;;;;;7.66;76.50;103027.56;5050495;28;20029;-82
2022/12/01 09:40:51;;;;;;;0.20;0.20;;;;;;;7.75;76.13;103031.34;5057167;28;20052;-81
2022/12/01 09:43:24;;;;;;;0.75;0.75;;;;;;;7.85;76.55;103026.28;5059349;28;20051;-81
2022/12/01 09:45:53;;;;;;;;;;;;;;;8.04;76.31;103025.06;5075432;28;20036;-81
2022/12/01 09:48:42;;;;;;;3.10;1.17;;;;;;;8.12;76.38;103025.25;5079377;28;19909;-82
2022/12/01 09:51:16;;;;;;;3.83;1.20;;;;;;;8.17;76.92;103028.88;5078186;28;20050;-82
2022/12/01 09:53:43;;;;;;;1.10;1.10;;;;;;;8.22;76.25;103022.88;5055998;28;20044;-80
2022/12/01 09:56:32;;;;;;;0.90;0.90;;;;;;;8.37;76.74;103014.44;5061098;28;20033;-82
2022/12/01 09:59:01;;;;;;;1.30;1.30;;;;;;;8.38;76.51;103008.28;5058017;28;20033;-81
2022/12/01 10:01:34;;;;;;;0.68;0.68;;;;;;;8.36;76.65;103009.09;5063994;28;20498;-82
2022/12/01 10:04:13;;;;;;;2.55;1.15;;;;;;;8.32;76.65;103002.84;5057858;28;20064;-82
2022/12/01 10:07:03;;;;;;;0.45;0.45;;;;;;;8.32;76.82;103008.13;5055443;28;20419;-82
2022/12/01 10:09:39;;;;;;;4.38;2.05;;;;;;;8.34;76.68;103006.41;5052583;28;20665;-81
2022/12/01 10:12:16;;;;;;;0.45;0.45;;;;;;;8.35;76.53;103002.94;5057634;28;20029;-83
2022/12/01 10:14:45;;;;;;;1.40;1.40;;;;;;;8.36;76.00;102999.44;5069794;28;20029;-82
2022/12/01 10:20:13;;;;;;;1.13;1.13;;;;;;;8.39;75.96;103004.78;5110394;27;1181432;-83
2022/12/01 10:23:04;;;;;;;0.98;0.90;;;;;;;8.46;75.77;103003.22;5110482;28;20282;-83
2022/12/01 10:25:44;;;;;;;1.15;1.15;;;;;;;8.49;75.25;102999.75;5114815;28;20023;-83
2022/12/01 10:30:52;;;;;;;0.85;0.85;;;;;;;8.54;75.61;102998.13;5153996;27;20387;-80
2022/12/01 10:35:59;;;;;;;2.25;2.03;;;;;;;8.57;74.82;102998.16;5090335;28;20387;-78
2022/12/01 10:41:04;;;;;;;0.70;0.70;;;;;;;8.60;74.76;102998.25;5057057;27;20412;-83
2022/12/01 10:43:46;;;;;;;1.88;1.83;;;;;;;8.64;74.32;102993.94;5022720;28;20034;-82
2022/12/01 10:46:43;;;;;;;0.32;0.32;;;;;;;8.68;74.17;102986.09;5032219;28;20552;-82
2022/12/01 10:49:12;;;;;;;2.05;1.95;;;;;;;8.70;74.57;102999.38;5027492;28;20084;-82
2022/12/01 10:51:55;;;;;;;1.73;1.63;;;;;;;8.78;74.22;102991.59;5037278;28;20851;-82
2022/12/01 10:54:30;;;;;;;2.42;2.30;;;;;;;8.78;74.41;102994.25;5034563;28;20033;-81
2022/12/01 10:56:57;;;;;;;1.92;1.85;;;;;;;8.80;74.44;102996.06;5032622;28;20042;-81
2022/12/01 10:59:35;;;;;;;1.30;1.30;;;;;;;8.87;74.31;102990.06;5032348;28;20026;-82
2022/12/01 11:02:04;;;;;;;0.75;0.75;;;;;;;8.87;74.00;102986.50;5033196;28;20029;-81
2022/12/01 11:07:20;;;;;;;0.28;0.28;;;;;;;9.00;74.24;102985.03;4878723;27;7741957;-82
2022/12/01 11:12:34;;;;;;;0.40;0.40;;;;;;;9.12;73.85;102987.03;5079776;27;20400;-81
2022/12/01 11:15:01;;;;;;;0.95;0.95;;;;;;;9.21;73.92;102982.81;5078377;27;20033;-81
2022/12/01 11:17:30;;;;;;;0.30;0.30;;;;;;;9.31;73.75;102975.97;5079428;28;20064;-82
2022/12/01 11:19:57;;;;;;;0.57;0.57;;;;;;;9.44;74.02;102978.84;5082439;28;20035;-82
2022/12/01 11:22:29;;;;;;;1.65;1.55;;;;;;;9.56;73.99;102968.47;5072375;28;20115;-82
2022/12/01 11:24:59;;;;;;;2.33;2.05;;;;;;;9.64;73.69;102966.84;5071337;28;20032;-81
2022/12/01 11:27:30;;;;;;;0.35;0.35;;;;;;;9.63;72.92;102965.09;5066222;28;20056;-82
2022/12/01 11:30:06;;;;;;;2.20;1.73;;;;;;;9.59;72.88;102963.22;5069496;28;20106;-82
2022/12/01 11:32:37;;;;;;;0.57;0.57;;;;;;;9.46;71.66;102962.13;5071563;28;20040;-82
2022/12/01 11:35:18;;;;;;;0.57;0.57;;;;;;;9.41;71.93;102962.88;5071700;28;20025;-82
2022/12/01 11:37:49;;;;;;;0.45;0.45;;;;;;;9.26;72.14;102959.09;5067301;28;20028;-82
2022/12/01 11:40:37;;;;;;;1.30;1.30;;;;;;;9.21;72.08;102955.47;5073180;28;20107;-81
2022/12/01 11:43:05;;;;;;;0.25;0.25;;;;;;;9.17;72.61;102948.31;5072651;28;20020;-81
2022/12/01 11:45:36;;;;;;;0.95;0.95;;;;;;;9.22;72.37;102946.66;5066094;28;20078;-82
2022/12/01 11:54:18;;;;;;;1.20;1.13;;;;;;;9.58;72.28;102934.09;5092616;27;20401;-82
2022/12/01 11:56:46;;;;;;;0.40;0.40;;;;;;;9.61;72.31;102931.50;5055653;28;20155;-82
2022/12/01 11:59:20;;;;;;;2.28;0.40;;;;;;;9.66;71.74;102943.97;5055749;28;20021;-82
2022/12/01 12:07:55;;;;;;;1.70;1.58;;;;;;;9.81;71.49;102931.88;5093573;27;20401;-81
2022/12/01 12:11:01;;;;;;;0.90;0.90;;;;;;;9.86;70.41;102930.19;5094487;28;20072;-81
2022/12/01 12:16:35;;;;;;;1.00;1.00;;;;;;;10.00;70.57;102928.63;5071661;28;20145;-81
2022/12/01 12:19:20;;;;;;;0.88;0.88;;;;;;;10.03;69.16;102918.09;5049499;28;20043;-82
2022/12/01 12:22:14;;;;;;;1.10;1.02;;;;;;;10.06;69.67;102925.19;5050253;28;20025;-81
2022/12/01 12:25:08;;;;;;;0.70;0.70;;;;;;;10.03;68.95;102919.84;5045363;28;20032;-81
2022/12/01 12:30:26;;;;;;;0.63;0.63;;;;;;;9.84;69.69;102921.31;5113702;27;20384;-80
2022/12/01 12:36:11;;;;;;;2.83;2.30;;;;;;;9.74;69.86;102916.72;5143241;27;20931;-82
2022/12/01 12:38:57;;;;;;;;;;;;;;;9.82;69.57;102910.69;5138460;28;20126;-81
2022/12/01 12:44:37;;;;;;;0.75;0.75;;;;;;;9.78;68.61;102914.19;5113557;27;20388;-81
2022/12/01 12:47:34;;;;;;;0.30;0.30;;;;;;;9.79;69.80;102912.41;5110853;28;20043;-81